sensor_id;sensor_type;location;lat;lon;timestamp;temperature;humidity
27890;DHT22;15238;49.082;9.102;2023-10-31T00:01:53;12.10;99.90
27890;DHT22;15238;49.082;9.102;2023-10-31T00:03:55;12.10;99.90
27890;DHT22;15238;49.082;9.102;2023-10-31T00:05:56;12.10;99.90
27890;DHT22;15238;49.082;9.102;2023-10-31T00:07:56;12.10;99.90
27890;DHT22;15238;49.082;9.102;2023-10-31T00:09:57;12.10;99.90
27890;DHT22;15238;49.082;9.102;2023-10-31T00:11:58;12.10;99.90
27890;DHT22;15238;49.082;9.102;2023-10-31T00:13:59;12.00;99.90
27890;DHT22;15238;49.082;9.102;2023-10-31T00:15:59;11.90;99.90
27890;DHT22;15238;49.082;9.102;2023-10-31T00:18:00;11.80;99.90
27890;DHT22;15238;49.082;9.102;2023-10-31T00:20:00;11.70;99.90
27890;DHT22;15238;49.082;9.102;2023-10-31T00:22:01;11.70;99.90
27890;DHT22;15238;49.082;9.102;2023-10-31T00:24:01;11.60;99.90
27890;DHT22;15238;49.082;9.102;2023-10-31T00:26:03;11.60;99.90
27890;DHT22;15238;49.082;9.102;2023-10-31T00:28:04;11.60;99.90
27890;DHT22;15238;49.082;9.102;2023-10-31T00:30:05;11.50;99.90
27890;DHT22;15238;49.082;9.102;2023-10-31T00:32:06;11.40;99.90
27890;DHT22;15238;49.082;9.102;2023-10-31T00:34:07;11.40;99.90
27890;DHT22;15238;49.082;9.102;2023-10-31T00:36:08;11.40;99.90
27890;DHT22;15238;49.082;9.102;2023-10-31T00:38:09;11.40;99.90
27890;DHT22;15238;49.082;9.102;2023-10-31T00:40:09;11.40;99.90
27890;DHT22;15238;49.082;9.102;2023-10-31T00:42:11;11.40;99.90
27890;DHT22;15238;49.082;9.102;2023-10-31T00:44:12;11.40;99.90
27890;DHT22;15238;49.082;9.102;2023-10-31T00:46:13;11.40;99.90
27890;DHT22;15238;49.082;9.102;2023-10-31T00:48:13;11.30;99.90
27890;DHT22;15238;49.082;9.102;2023-10-31T00:50:14;11.30;99.90
27890;DHT22;15238;49.082;9.102;2023-10-31T01:36:50;10.70;99.90
27890;DHT22;15238;49.082;9.102;2023-10-31T01:38:50;10.70;99.90
27890;DHT22;15238;49.082;9.102;2023-10-31T01:40:51;10.70;99.90
27890;DHT22;15238;49.082;9.102;2023-10-31T01:42:51;10.70;99.90
27890;DHT22;15238;49.082;9.102;2023-10-31T01:44:52;10.60;99.90
27890;DHT22;15238;49.082;9.102;2023-10-31T01:46:52;10.60;99.90
27890;DHT22;15238;49.082;9.102;2023-10-31T01:48:53;10.60;99.90
27890;DHT22;15238;49.082;9.102;2023-10-31T01:50:54;10.60;99.90
27890;DHT22;15238;49.082;9.102;2023-10-31T01:52:55;10.50;99.90
27890;DHT22;15238;49.082;9.102;2023-10-31T01:54:55;10.50;99.90
27890;DHT22;15238;49.082;9.102;2023-10-31T01:56:57;10.50;99.90
27890;DHT22;15238;49.082;9.102;2023-10-31T01:58:58;10.50;99.90
27890;DHT22;15238;49.082;9.102;2023-10-31T02:00:59;10.50;99.90
27890;DHT22;15238;49.082;9.102;2023-10-31T02:03:04;10.50;99.90
27890;DHT22;15238;49.082;9.102;2023-10-31T02:05:05;10.50;99.90
27890;DHT22;15238;49.082;9.102;2023-10-31T02:07:06;10.60;99.90
27890;DHT22;15238;49.082;9.102;2023-10-31T02:09:06;10.50;99.90
27890;DHT22;15238;49.082;9.102;2023-10-31T02:11:07;10.50;99.90
27890;DHT22;15238;49.082;9.102;2023-10-31T02:16:07;10.50;99.90
27890;DHT22;15238;49.082;9.102;2023-10-31T02:18:08;10.50;99.90
27890;DHT22;15238;49.082;9.102;2023-10-31T02:20:09;10.50;99.90
27890;DHT22;15238;49.082;9.102;2023-10-31T02:22:10;10.50;99.90
27890;DHT22;15238;49.082;9.102;2023-10-31T02:24:11;10.50;99.90
27890;DHT22;15238;49.082;9.102;2023-10-31T02:26:12;10.50;99.90
27890;DHT22;15238;49.082;9.102;2023-10-31T02:28:12;10.50;99.90
27890;DHT22;15238;49.082;9.102;2023-10-31T02:30:13;10.60;99.90
27890;DHT22;15238;49.082;9.102;2023-10-31T02:32:14;10.60;99.90
27890;DHT22;15238;49.082;9.102;2023-10-31T02:34:15;10.60;99.90
27890;DHT22;15238;49.082;9.102;2023-10-31T02:36:15;10.60;99.90
27890;DHT22;15238;49.082;9.102;2023-10-31T02:38:16;10.50;99.90
27890;DHT22;15238;49.082;9.102;2023-10-31T02:40:16;10.50;99.90
27890;DHT22;15238;49.082;9.102;2023-10-31T02:42:17;10.50;99.90
27890;DHT22;15238;49.082;9.102;2023-10-31T02:44:17;10.50;99.90
27890;DHT22;15238;49.082;9.102;2023-10-31T02:46:18;10.50;99.90
27890;DHT22;15238;49.082;9.102;2023-10-31T02:48:19;10.40;99.90
27890;DHT22;15238;49.082;9.102;2023-10-31T02:50:20;10.40;99.90
27890;DHT22;15238;49.082;9.102;2023-10-31T02:52:21;10.40;99.90
27890;DHT22;15238;49.082;9.102;2023-10-31T02:54:21;10.40;99.90
27890;DHT22;15238;49.082;9.102;2023-10-31T02:56:22;10.30;99.90
27890;DHT22;15238;49.082;9.102;2023-10-31T02:58:23;10.40;99.90
27890;DHT22;15238;49.082;9.102;2023-10-31T03:00:24;10.30;99.90
27890;DHT22;15238;49.082;9.102;2023-10-31T03:02:26;10.40;99.90
27890;DHT22;15238;49.082;9.102;2023-10-31T03:04:26;10.30;99.90
27890;DHT22;15238;49.082;9.102;2023-10-31T03:06:26;10.30;99.90
27890;DHT22;15238;49.082;9.102;2023-10-31T03:08:27;10.30;99.90
27890;DHT22;15238;49.082;9.102;2023-10-31T03:10:28;10.20;99.90
27890;DHT22;15238;49.082;9.102;2023-10-31T03:12:28;10.20;99.90
27890;DHT22;15238;49.082;9.102;2023-10-31T03:14:29;10.20;99.90
27890;DHT22;15238;49.082;9.102;2023-10-31T03:16:29;10.20;99.90
27890;DHT22;15238;49.082;9.102;2023-10-31T03:18:30;10.20;99.90
27890;DHT22;15238;49.082;9.102;2023-10-31T03:20:30;10.20;99.90
27890;DHT22;15238;49.082;9.102;2023-10-31T03:22:31;10.20;99.90
27890;DHT22;15238;49.082;9.102;2023-10-31T03:24:32;10.20;99.90
27890;DHT22;15238;49.082;9.102;2023-10-31T03:26:32;10.20;99.90
27890;DHT22;15238;49.082;9.102;2023-10-31T03:28:33;10.20;99.90
27890;DHT22;15238;49.082;9.102;2023-10-31T03:30:33;10.20;99.90
27890;DHT22;15238;49.082;9.102;2023-10-31T03:32:34;10.20;99.90
27890;DHT22;15238;49.082;9.102;2023-10-31T03:34:34;10.20;99.90
27890;DHT22;15238;49.082;9.102;2023-10-31T03:36:35;10.30;99.90
27890;DHT22;15238;49.082;9.102;2023-10-31T03:38:36;10.30;99.90
27890;DHT22;15238;49.082;9.102;2023-10-31T03:40:36;10.30;99.90
27890;DHT22;15238;49.082;9.102;2023-10-31T03:42:37;10.30;99.90
27890;DHT22;15238;49.082;9.102;2023-10-31T03:44:37;10.30;99.90
27890;DHT22;15238;49.082;9.102;2023-10-31T03:46:38;10.40;99.90
27890;DHT22;15238;49.082;9.102;2023-10-31T03:48:38;10.30;99.90
27890;DHT22;15238;49.082;9.102;2023-10-31T03:50:39;10.30;99.90
27890;DHT22;15238;49.082;9.102;2023-10-31T03:52:39;10.40;99.90
27890;DHT22;15238;49.082;9.102;2023-10-31T03:54:40;10.40;99.90
27890;DHT22;15238;49.082;9.102;2023-10-31T03:56:43;10.40;99.90
27890;DHT22;15238;49.082;9.102;2023-10-31T03:58:44;10.40;99.90
27890;DHT22;15238;49.082;9.102;2023-10-31T04:00:44;10.40;99.90
27890;DHT22;15238;49.082;9.102;2023-10-31T04:02:45;10.40;99.90
27890;DHT22;15238;49.082;9.102;2023-10-31T04:04:46;10.40;99.90
27890;DHT22;15238;49.082;9.102;2023-10-31T04:06:46;10.40;99.90
27890;DHT22;15238;49.082;9.102;2023-10-31T04:08:47;10.50;99.90
27890;DHT22;15238;49.082;9.102;2023-10-31T04:10:47;10.50;99.90
27890;DHT22;15238;49.082;9.102;2023-10-31T04:12:48;10.50;99.90
27890;DHT22;15238;49.082;9.102;2023-10-31T04:14:48;10.50;99.90
27890;DHT22;15238;49.082;9.102;2023-10-31T04:16:49;10.60;99.90
27890;DHT22;15238;49.082;9.102;2023-10-31T04:18:49;10.60;99.90
27890;DHT22;15238;49.082;9.102;2023-10-31T04:20:50;10.60;99.90
27890;DHT22;15238;49.082;9.102;2023-10-31T04:22:50;10.70;99.90
27890;DHT22;15238;49.082;9.102;2023-10-31T04:24:51;10.70;99.90
27890;DHT22;15238;49.082;9.102;2023-10-31T04:26:51;10.70;99.90
27890;DHT22;15238;49.082;9.102;2023-10-31T04:28:52;10.70;99.90
27890;DHT22;15238;49.082;9.102;2023-10-31T04:30:52;10.70;99.90
27890;DHT22;15238;49.082;9.102;2023-10-31T04:32:53;10.70;99.90
27890;DHT22;15238;49.082;9.102;2023-10-31T04:34:53;10.70;99.90
27890;DHT22;15238;49.082;9.102;2023-10-31T04:36:54;10.70;99.90
27890;DHT22;15238;49.082;9.102;2023-10-31T04:38:55;10.70;99.90
27890;DHT22;15238;49.082;9.102;2023-10-31T04:40:55;10.70;99.90
27890;DHT22;15238;49.082;9.102;2023-10-31T04:42:55;10.60;99.90
27890;DHT22;15238;49.082;9.102;2023-10-31T04:44:56;10.70;99.90
27890;DHT22;15238;49.082;9.102;2023-10-31T04:46:56;10.60;99.90
27890;DHT22;15238;49.082;9.102;2023-10-31T04:48:57;10.60;99.90
27890;DHT22;15238;49.082;9.102;2023-10-31T04:50:58;10.60;99.90
27890;DHT22;15238;49.082;9.102;2023-10-31T04:52:59;10.70;99.90
27890;DHT22;15238;49.082;9.102;2023-10-31T04:54:59;10.60;99.90
27890;DHT22;15238;49.082;9.102;2023-10-31T04:57:00;10.60;99.90
27890;DHT22;15238;49.082;9.102;2023-10-31T04:59:00;10.60;99.90
27890;DHT22;15238;49.082;9.102;2023-10-31T05:01:01;10.60;99.90
27890;DHT22;15238;49.082;9.102;2023-10-31T05:03:01;10.60;99.90
27890;DHT22;15238;49.082;9.102;2023-10-31T05:05:03;10.60;99.90
27890;DHT22;15238;49.082;9.102;2023-10-31T05:07:03;10.60;99.90
27890;DHT22;15238;49.082;9.102;2023-10-31T05:09:04;10.60;99.90
27890;DHT22;15238;49.082;9.102;2023-10-31T05:11:05;10.60;99.90
27890;DHT22;15238;49.082;9.102;2023-10-31T05:13:05;10.70;99.90
27890;DHT22;15238;49.082;9.102;2023-10-31T05:15:06;10.70;99.90
27890;DHT22;15238;49.082;9.102;2023-10-31T05:17:07;10.70;99.90
27890;DHT22;15238;49.082;9.102;2023-10-31T05:19:08;10.70;99.90
27890;DHT22;15238;49.082;9.102;2023-10-31T05:21:08;10.70;99.90
27890;DHT22;15238;49.082;9.102;2023-10-31T05:23:09;10.70;99.90
27890;DHT22;15238;49.082;9.102;2023-10-31T05:25:09;10.60;99.90
27890;DHT22;15238;49.082;9.102;2023-10-31T05:27:10;10.60;99.90
27890;DHT22;15238;49.082;9.102;2023-10-31T05:29:11;10.60;99.90
27890;DHT22;15238;49.082;9.102;2023-10-31T05:31:15;10.60;99.90
27890;DHT22;15238;49.082;9.102;2023-10-31T05:33:16;10.70;99.90
27890;DHT22;15238;49.082;9.102;2023-10-31T05:35:17;10.60;99.90
27890;DHT22;15238;49.082;9.102;2023-10-31T05:37:17;10.60;99.90
27890;DHT22;15238;49.082;9.102;2023-10-31T05:39:17;10.60;99.90
27890;DHT22;15238;49.082;9.102;2023-10-31T05:41:18;10.60;99.90
27890;DHT22;15238;49.082;9.102;2023-10-31T05:43:18;10.60;99.90
27890;DHT22;15238;49.082;9.102;2023-10-31T05:45:19;10.60;99.90
27890;DHT22;15238;49.082;9.102;2023-10-31T05:47:19;10.60;99.90
27890;DHT22;15238;49.082;9.102;2023-10-31T05:49:20;10.50;99.90
27890;DHT22;15238;49.082;9.102;2023-10-31T05:51:21;10.50;99.90
27890;DHT22;15238;49.082;9.102;2023-10-31T05:53:21;10.60;99.90
27890;DHT22;15238;49.082;9.102;2023-10-31T05:55:22;10.50;99.90
27890;DHT22;15238;49.082;9.102;2023-10-31T05:57:22;10.50;99.90
27890;DHT22;15238;49.082;9.102;2023-10-31T05:59:23;10.50;99.90
27890;DHT22;15238;49.082;9.102;2023-10-31T06:01:23;10.50;99.90
27890;DHT22;15238;49.082;9.102;2023-10-31T06:03:24;10.50;99.90
27890;DHT22;15238;49.082;9.102;2023-10-31T06:05:24;10.50;99.90
27890;DHT22;15238;49.082;9.102;2023-10-31T06:07:25;10.50;99.90
27890;DHT22;15238;49.082;9.102;2023-10-31T06:09:25;10.50;99.90
27890;DHT22;15238;49.082;9.102;2023-10-31T06:11:26;10.50;99.90
27890;DHT22;15238;49.082;9.102;2023-10-31T06:13:26;10.50;99.90
27890;DHT22;15238;49.082;9.102;2023-10-31T06:15:27;10.50;99.90
27890;DHT22;15238;49.082;9.102;2023-10-31T06:17:27;10.50;99.90
27890;DHT22;15238;49.082;9.102;2023-10-31T06:19:28;10.50;99.90
27890;DHT22;15238;49.082;9.102;2023-10-31T06:21:28;10.50;99.90
27890;DHT22;15238;49.082;9.102;2023-10-31T06:23:29;10.50;99.90
27890;DHT22;15238;49.082;9.102;2023-10-31T06:25:30;10.50;99.90
27890;DHT22;15238;49.082;9.102;2023-10-31T06:27:30;10.50;99.90
27890;DHT22;15238;49.082;9.102;2023-10-31T06:29:31;10.50;99.90
27890;DHT22;15238;49.082;9.102;2023-10-31T06:31:31;10.50;99.90
27890;DHT22;15238;49.082;9.102;2023-10-31T06:33:32;10.50;99.90
27890;DHT22;15238;49.082;9.102;2023-10-31T06:35:32;10.50;99.90
27890;DHT22;15238;49.082;9.102;2023-10-31T06:37:33;10.50;99.90
27890;DHT22;15238;49.082;9.102;2023-10-31T06:39:33;10.50;99.90
27890;DHT22;15238;49.082;9.102;2023-10-31T06:41:34;10.50;99.90
27890;DHT22;15238;49.082;9.102;2023-10-31T06:43:34;10.50;99.90
27890;DHT22;15238;49.082;9.102;2023-10-31T06:45:35;10.50;99.90
27890;DHT22;15238;49.082;9.102;2023-10-31T06:47:35;10.50;99.90
27890;DHT22;15238;49.082;9.102;2023-10-31T06:49:36;10.50;99.90
27890;DHT22;15238;49.082;9.102;2023-10-31T06:51:37;10.50;99.90
27890;DHT22;15238;49.082;9.102;2023-10-31T06:53:37;10.60;99.90
27890;DHT22;15238;49.082;9.102;2023-10-31T06:55:38;10.60;99.90
27890;DHT22;15238;49.082;9.102;2023-10-31T06:57:38;10.70;99.90
27890;DHT22;15238;49.082;9.102;2023-10-31T06:59:39;10.70;99.90
27890;DHT22;15238;49.082;9.102;2023-10-31T07:01:39;10.80;99.90
27890;DHT22;15238;49.082;9.102;2023-10-31T07:03:40;10.70;99.90
27890;DHT22;15238;49.082;9.102;2023-10-31T07:05:41;10.70;99.90
27890;DHT22;15238;49.082;9.102;2023-10-31T07:07:42;10.70;99.90
27890;DHT22;15238;49.082;9.102;2023-10-31T07:09:42;10.80;99.90
27890;DHT22;15238;49.082;9.102;2023-10-31T07:11:43;10.70;99.90
27890;DHT22;15238;49.082;9.102;2023-10-31T07:13:43;10.80;99.90
27890;DHT22;15238;49.082;9.102;2023-10-31T07:15:44;10.80;99.90
27890;DHT22;15238;49.082;9.102;2023-10-31T07:17:46;10.80;99.90
27890;DHT22;15238;49.082;9.102;2023-10-31T07:19:46;10.90;99.90
27890;DHT22;15238;49.082;9.102;2023-10-31T07:21:47;10.90;99.90
27890;DHT22;15238;49.082;9.102;2023-10-31T07:23:47;10.90;99.90
27890;DHT22;15238;49.082;9.102;2023-10-31T07:25:48;10.90;99.90
27890;DHT22;15238;49.082;9.102;2023-10-31T07:27:48;10.90;99.90
27890;DHT22;15238;49.082;9.102;2023-10-31T07:29:49;11.00;99.90
27890;DHT22;15238;49.082;9.102;2023-10-31T07:31:49;11.00;99.90
27890;DHT22;15238;49.082;9.102;2023-10-31T07:33:50;11.00;99.90
27890;DHT22;15238;49.082;9.102;2023-10-31T07:35:50;11.00;99.90
27890;DHT22;15238;49.082;9.102;2023-10-31T07:37:51;11.00;99.90
27890;DHT22;15238;49.082;9.102;2023-10-31T07:39:51;11.10;99.90
27890;DHT22;15238;49.082;9.102;2023-10-31T07:41:52;11.00;99.90
27890;DHT22;15238;49.082;9.102;2023-10-31T07:43:52;11.10;99.90
27890;DHT22;15238;49.082;9.102;2023-10-31T07:45:53;11.10;99.90
27890;DHT22;15238;49.082;9.102;2023-10-31T07:47:53;11.10;99.90
27890;DHT22;15238;49.082;9.102;2023-10-31T07:49:54;11.10;99.90
27890;DHT22;15238;49.082;9.102;2023-10-31T07:51:54;11.20;99.90
27890;DHT22;15238;49.082;9.102;2023-10-31T07:53:55;11.10;99.90
27890;DHT22;15238;49.082;9.102;2023-10-31T07:55:55;11.20;99.90
27890;DHT22;15238;49.082;9.102;2023-10-31T07:57:56;11.20;99.90
27890;DHT22;15238;49.082;9.102;2023-10-31T07:59:56;11.20;99.90
27890;DHT22;15238;49.082;9.102;2023-10-31T08:01:57;11.20;99.90
27890;DHT22;15238;49.082;9.102;2023-10-31T08:03:57;11.20;99.90
27890;DHT22;15238;49.082;9.102;2023-10-31T08:05:58;11.30;99.90
27890;DHT22;15238;49.082;9.102;2023-10-31T08:08:00;11.40;99.90
27890;DHT22;15238;49.082;9.102;2023-10-31T08:10:01;11.40;99.90
27890;DHT22;15238;49.082;9.102;2023-10-31T08:12:02;11.40;99.90
27890;DHT22;15238;49.082;9.102;2023-10-31T08:14:03;11.50;99.90
27890;DHT22;15238;49.082;9.102;2023-10-31T08:16:05;11.50;99.90
27890;DHT22;15238;49.082;9.102;2023-10-31T08:18:06;11.50;99.90
27890;DHT22;15238;49.082;9.102;2023-10-31T08:20:07;11.60;99.90
27890;DHT22;15238;49.082;9.102;2023-10-31T08:22:08;11.70;99.90
27890;DHT22;15238;49.082;9.102;2023-10-31T08:24:09;11.80;99.90
27890;DHT22;15238;49.082;9.102;2023-10-31T08:26:10;11.80;99.90
27890;DHT22;15238;49.082;9.102;2023-10-31T08:28:11;11.80;99.90
27890;DHT22;15238;49.082;9.102;2023-10-31T08:30:12;11.80;99.90
27890;DHT22;15238;49.082;9.102;2023-10-31T08:32:12;11.80;99.90
27890;DHT22;15238;49.082;9.102;2023-10-31T08:34:13;11.80;99.90
27890;DHT22;15238;49.082;9.102;2023-10-31T08:36:13;11.80;99.90
27890;DHT22;15238;49.082;9.102;2023-10-31T08:38:14;11.90;99.90
27890;DHT22;15238;49.082;9.102;2023-10-31T08:40:14;11.90;99.90
27890;DHT22;15238;49.082;9.102;2023-10-31T08:42:15;11.80;99.90
27890;DHT22;15238;49.082;9.102;2023-10-31T08:44:15;11.80;99.90
27890;DHT22;15238;49.082;9.102;2023-10-31T08:46:16;11.90;99.90
27890;DHT22;15238;49.082;9.102;2023-10-31T08:48:16;11.90;99.90
27890;DHT22;15238;49.082;9.102;2023-10-31T08:50:17;11.90;99.90
27890;DHT22;15238;49.082;9.102;2023-10-31T08:52:17;11.90;99.90
27890;DHT22;15238;49.082;9.102;2023-10-31T08:54:18;11.90;99.90
27890;DHT22;15238;49.082;9.102;2023-10-31T08:56:19;11.80;99.90
27890;DHT22;15238;49.082;9.102;2023-10-31T08:58:20;11.90;99.90
27890;DHT22;15238;49.082;9.102;2023-10-31T09:00:20;11.90;99.90
27890;DHT22;15238;49.082;9.102;2023-10-31T09:02:21;11.90;99.90
27890;DHT22;15238;49.082;9.102;2023-10-31T09:04:21;11.90;99.90
27890;DHT22;15238;49.082;9.102;2023-10-31T09:06:22;12.00;99.90
27890;DHT22;15238;49.082;9.102;2023-10-31T09:08:23;12.00;99.90
27890;DHT22;15238;49.082;9.102;2023-10-31T09:10:23;12.10;99.90
27890;DHT22;15238;49.082;9.102;2023-10-31T09:12:24;12.10;99.90
27890;DHT22;15238;49.082;9.102;2023-10-31T09:14:24;12.00;99.90
27890;DHT22;15238;49.082;9.102;2023-10-31T09:16:25;12.00;99.90
27890;DHT22;15238;49.082;9.102;2023-10-31T09:18:25;12.10;99.90
27890;DHT22;15238;49.082;9.102;2023-10-31T09:20:26;12.00;99.90
27890;DHT22;15238;49.082;9.102;2023-10-31T09:22:26;12.00;99.90
27890;DHT22;15238;49.082;9.102;2023-10-31T09:24:27;12.00;99.90
27890;DHT22;15238;49.082;9.102;2023-10-31T09:26:27;12.00;99.90
27890;DHT22;15238;49.082;9.102;2023-10-31T09:28:28;11.90;99.90
27890;DHT22;15238;49.082;9.102;2023-10-31T09:30:28;11.90;99.90
27890;DHT22;15238;49.082;9.102;2023-10-31T09:32:29;11.90;99.90
27890;DHT22;15238;49.082;9.102;2023-10-31T09:34:29;12.00;99.90
27890;DHT22;15238;49.082;9.102;2023-10-31T09:36:33;11.90;99.90
27890;DHT22;15238;49.082;9.102;2023-10-31T09:38:35;11.90;99.90
27890;DHT22;15238;49.082;9.102;2023-10-31T09:40:38;11.90;99.90
27890;DHT22;15238;49.082;9.102;2023-10-31T09:42:39;12.00;99.90
27890;DHT22;15238;49.082;9.102;2023-10-31T09:44:39;12.00;99.90
27890;DHT22;15238;49.082;9.102;2023-10-31T09:46:40;12.10;99.90
27890;DHT22;15238;49.082;9.102;2023-10-31T09:48:41;12.20;99.90
27890;DHT22;15238;49.082;9.102;2023-10-31T09:50:42;12.30;99.90
27890;DHT22;15238;49.082;9.102;2023-10-31T09:52:44;12.60;99.90
27890;DHT22;15238;49.082;9.102;2023-10-31T09:54:47;12.80;99.90
27890;DHT22;15238;49.082;9.102;2023-10-31T09:56:47;12.90;99.90
27890;DHT22;15238;49.082;9.102;2023-10-31T09:58:48;13.10;99.90
27890;DHT22;15238;49.082;9.102;2023-10-31T10:00:48;13.00;99.90
27890;DHT22;15238;49.082;9.102;2023-10-31T10:02:49;13.10;99.90
27890;DHT22;15238;49.082;9.102;2023-10-31T10:04:50;13.20;99.90
27890;DHT22;15238;49.082;9.102;2023-10-31T10:07:03;13.10;99.90
27890;DHT22;15238;49.082;9.102;2023-10-31T10:09:04;13.00;99.90
27890;DHT22;15238;49.082;9.102;2023-10-31T10:11:06;12.90;99.90
27890;DHT22;15238;49.082;9.102;2023-10-31T10:13:08;12.90;99.90
27890;DHT22;15238;49.082;9.102;2023-10-31T10:15:10;12.90;99.90
27890;DHT22;15238;49.082;9.102;2023-10-31T10:17:23;12.90;99.90
27890;DHT22;15238;49.082;9.102;2023-10-31T10:19:24;12.80;99.90
27890;DHT22;15238;49.082;9.102;2023-10-31T10:21:24;12.80;99.90
27890;DHT22;15238;49.082;9.102;2023-10-31T10:23:25;12.90;99.90
27890;DHT22;15238;49.082;9.102;2023-10-31T10:25:27;12.90;99.90
27890;DHT22;15238;49.082;9.102;2023-10-31T10:27:28;13.00;99.90
27890;DHT22;15238;49.082;9.102;2023-10-31T10:29:28;13.10;99.90
27890;DHT22;15238;49.082;9.102;2023-10-31T10:31:28;13.00;99.90
27890;DHT22;15238;49.082;9.102;2023-10-31T10:33:29;13.10;99.90
27890;DHT22;15238;49.082;9.102;2023-10-31T10:35:29;13.10;99.90
27890;DHT22;15238;49.082;9.102;2023-10-31T10:37:30;13.30;99.90
27890;DHT22;15238;49.082;9.102;2023-10-31T10:39:32;13.40;99.90
27890;DHT22;15238;49.082;9.102;2023-10-31T10:41:35;13.40;99.90
27890;DHT22;15238;49.082;9.102;2023-10-31T10:43:37;13.50;99.90
27890;DHT22;15238;49.082;9.102;2023-10-31T10:45:42;13.40;99.90
27890;DHT22;15238;49.082;9.102;2023-10-31T10:47:49;13.40;99.90
27890;DHT22;15238;49.082;9.102;2023-10-31T10:49:54;13.30;99.90
27890;DHT22;15238;49.082;9.102;2023-10-31T10:51:59;13.30;99.90
27890;DHT22;15238;49.082;9.102;2023-10-31T10:54:11;13.20;99.90
27890;DHT22;15238;49.082;9.102;2023-10-31T10:56:17;13.40;99.90
27890;DHT22;15238;49.082;9.102;2023-10-31T10:58:24;13.40;99.90
27890;DHT22;15238;49.082;9.102;2023-10-31T11:00:28;13.40;99.90
27890;DHT22;15238;49.082;9.102;2023-10-31T11:02:30;13.60;99.90
27890;DHT22;15238;49.082;9.102;2023-10-31T11:04:31;13.40;99.90
27890;DHT22;15238;49.082;9.102;2023-10-31T11:06:33;13.40;99.90
27890;DHT22;15238;49.082;9.102;2023-10-31T11:08:35;13.40;99.90
27890;DHT22;15238;49.082;9.102;2023-10-31T11:10:37;13.30;99.90
27890;DHT22;15238;49.082;9.102;2023-10-31T11:12:38;13.20;99.90
27890;DHT22;15238;49.082;9.102;2023-10-31T11:14:40;13.30;99.90
27890;DHT22;15238;49.082;9.102;2023-10-31T11:16:45;13.30;99.90
27890;DHT22;15238;49.082;9.102;2023-10-31T11:18:48;13.30;99.90
27890;DHT22;15238;49.082;9.102;2023-10-31T11:20:48;13.30;99.90
27890;DHT22;15238;49.082;9.102;2023-10-31T11:22:54;13.40;99.90
27890;DHT22;15238;49.082;9.102;2023-10-31T11:24:57;13.20;99.90
27890;DHT22;15238;49.082;9.102;2023-10-31T11:26:59;13.30;99.90
27890;DHT22;15238;49.082;9.102;2023-10-31T11:29:04;13.40;99.90
27890;DHT22;15238;49.082;9.102;2023-10-31T11:31:05;13.50;99.90
27890;DHT22;15238;49.082;9.102;2023-10-31T11:33:12;13.50;99.90
27890;DHT22;15238;49.082;9.102;2023-10-31T11:35:13;13.70;99.90
27890;DHT22;15238;49.082;9.102;2023-10-31T11:39:27;13.90;99.90
27890;DHT22;15238;49.082;9.102;2023-10-31T11:41:28;14.00;99.90
27890;DHT22;15238;49.082;9.102;2023-10-31T11:45:45;13.90;99.90
27890;DHT22;15238;49.082;9.102;2023-10-31T11:47:50;13.90;99.90
27890;DHT22;15238;49.082;9.102;2023-10-31T11:49:51;14.00;99.90
27890;DHT22;15238;49.082;9.102;2023-10-31T11:51:52;14.10;99.90
27890;DHT22;15238;49.082;9.102;2023-10-31T11:53:53;14.10;99.90
27890;DHT22;15238;49.082;9.102;2023-10-31T11:55:53;14.10;99.90
27890;DHT22;15238;49.082;9.102;2023-10-31T11:57:56;14.10;99.90
27890;DHT22;15238;49.082;9.102;2023-10-31T11:59:57;14.10;99.90
27890;DHT22;15238;49.082;9.102;2023-10-31T12:01:57;14.40;99.90
27890;DHT22;15238;49.082;9.102;2023-10-31T12:03:58;14.50;99.90
27890;DHT22;15238;49.082;9.102;2023-10-31T12:05:59;14.50;99.90
27890;DHT22;15238;49.082;9.102;2023-10-31T12:08:00;14.50;99.90
27890;DHT22;15238;49.082;9.102;2023-10-31T12:10:00;14.50;99.90
27890;DHT22;15238;49.082;9.102;2023-10-31T12:12:01;14.40;99.90
27890;DHT22;15238;49.082;9.102;2023-10-31T12:14:03;14.40;99.90
27890;DHT22;15238;49.082;9.102;2023-10-31T12:16:07;14.50;99.90
27890;DHT22;15238;49.082;9.102;2023-10-31T12:18:08;14.50;99.90
27890;DHT22;15238;49.082;9.102;2023-10-31T12:20:09;14.50;99.90
27890;DHT22;15238;49.082;9.102;2023-10-31T12:22:14;14.50;99.90
27890;DHT22;15238;49.082;9.102;2023-10-31T12:24:17;14.30;99.90
27890;DHT22;15238;49.082;9.102;2023-10-31T12:26:21;14.30;99.90
27890;DHT22;15238;49.082;9.102;2023-10-31T12:28:23;14.50;99.90
27890;DHT22;15238;49.082;9.102;2023-10-31T12:30:24;14.50;99.90
27890;DHT22;15238;49.082;9.102;2023-10-31T12:32:25;14.60;99.90
27890;DHT22;15238;49.082;9.102;2023-10-31T12:34:25;14.60;99.90
27890;DHT22;15238;49.082;9.102;2023-10-31T12:36:26;14.50;99.90
27890;DHT22;15238;49.082;9.102;2023-10-31T12:38:27;14.30;99.90
27890;DHT22;15238;49.082;9.102;2023-10-31T12:40:28;14.20;99.90
27890;DHT22;15238;49.082;9.102;2023-10-31T12:42:29;14.20;99.90
27890;DHT22;15238;49.082;9.102;2023-10-31T12:44:32;14.20;99.90
27890;DHT22;15238;49.082;9.102;2023-10-31T12:46:32;14.10;99.90
27890;DHT22;15238;49.082;9.102;2023-10-31T12:48:37;14.00;99.90
27890;DHT22;15238;49.082;9.102;2023-10-31T12:50:38;13.90;99.90
27890;DHT22;15238;49.082;9.102;2023-10-31T12:54:46;13.70;99.90
27890;DHT22;15238;49.082;9.102;2023-10-31T12:56:46;13.60;99.90
27890;DHT22;15238;49.082;9.102;2023-10-31T12:58:47;13.60;99.90
27890;DHT22;15238;49.082;9.102;2023-10-31T13:00:47;13.60;99.90
27890;DHT22;15238;49.082;9.102;2023-10-31T13:02:48;13.60;99.90
27890;DHT22;15238;49.082;9.102;2023-10-31T13:04:49;13.70;99.90
27890;DHT22;15238;49.082;9.102;2023-10-31T13:08:59;13.60;99.90
27890;DHT22;15238;49.082;9.102;2023-10-31T13:11:00;13.60;99.90
27890;DHT22;15238;49.082;9.102;2023-10-31T13:13:01;13.60;99.90
27890;DHT22;15238;49.082;9.102;2023-10-31T13:15:01;13.70;99.90
27890;DHT22;15238;49.082;9.102;2023-10-31T13:17:02;13.60;99.90
27890;DHT22;15238;49.082;9.102;2023-10-31T13:19:03;13.60;99.90
27890;DHT22;15238;49.082;9.102;2023-10-31T13:21:04;13.60;99.90
27890;DHT22;15238;49.082;9.102;2023-10-31T13:23:04;13.50;99.90
27890;DHT22;15238;49.082;9.102;2023-10-31T13:25:06;13.50;99.90
27890;DHT22;15238;49.082;9.102;2023-10-31T13:27:08;13.40;99.90
27890;DHT22;15238;49.082;9.102;2023-10-31T13:29:08;13.30;99.90
27890;DHT22;15238;49.082;9.102;2023-10-31T13:31:09;13.30;99.90
27890;DHT22;15238;49.082;9.102;2023-10-31T13:33:11;13.20;99.90
27890;DHT22;15238;49.082;9.102;2023-10-31T13:35:11;13.20;99.90
27890;DHT22;15238;49.082;9.102;2023-10-31T13:37:14;13.20;99.90
27890;DHT22;15238;49.082;9.102;2023-10-31T13:39:14;13.20;99.90
27890;DHT22;15238;49.082;9.102;2023-10-31T13:41:15;13.20;99.90